createdAt,value
2023-04-06T00:01:46.250Z,7.70
2023-04-06T00:04:13.056Z,7.50
2023-04-06T00:06:39.933Z,6.40
2023-04-06T00:09:06.887Z,10.47
2023-04-06T00:11:33.865Z,7.07
2023-04-06T00:14:01.227Z,7.33
2023-04-06T00:16:29.893Z,5.23
2023-04-06T00:18:57.616Z,5.77
2023-04-06T00:21:24.356Z,7.37
2023-04-06T00:23:51.113Z,6.90
2023-04-06T00:26:17.798Z,8.13
2023-04-06T00:28:47.579Z,9.73
2023-04-06T00:31:14.323Z,9.73
2023-04-06T00:33:41.148Z,7.57
2023-04-06T00:36:08.093Z,8.93
2023-04-06T00:38:34.877Z,6.10
2023-04-06T00:41:01.626Z,6.50
2023-04-06T00:43:28.687Z,9.20
2023-04-06T00:45:56.109Z,9.60
2023-04-06T00:48:22.815Z,7.40
2023-04-06T00:50:49.601Z,6.87
2023-04-06T00:53:16.330Z,5.63
2023-04-06T00:55:43.300Z,12.80
2023-04-06T00:58:10.176Z,8.00
2023-04-06T01:00:45.576Z,9.60
2023-04-06T01:03:17.032Z,7.00
2023-04-06T01:05:45.168Z,8.57
2023-04-06T01:08:19.652Z,6.97
2023-04-06T01:10:46.923Z,8.63
2023-04-06T01:13:23.938Z,12.10
2023-04-06T01:15:56.604Z,12.83
2023-04-06T01:18:39.299Z,5.90
2023-04-06T01:21:19.015Z,6.53
2023-04-06T01:24:06.859Z,8.67
2023-04-06T01:26:45.732Z,8.23
2023-04-06T01:29:13.005Z,8.90
2023-04-06T01:31:40.594Z,9.40
2023-04-06T01:34:07.554Z,8.93
2023-04-06T01:36:34.263Z,7.40
2023-04-06T01:39:21.259Z,7.67
2023-04-06T01:41:51.108Z,7.53
2023-04-06T01:44:20.156Z,11.90
2023-04-06T01:46:52.468Z,7.30
2023-04-06T01:49:19.883Z,8.03
2023-04-06T01:51:51.554Z,7.60
2023-04-06T01:54:18.285Z,9.43
2023-04-06T01:56:56.357Z,9.63
2023-04-06T01:59:29.815Z,11.30
2023-04-06T02:01:57.468Z,7.60
2023-04-06T02:04:27.060Z,7.20
2023-04-06T02:07:01.335Z,8.73
2023-04-06T02:09:30.529Z,8.23
2023-04-06T02:11:57.663Z,11.73
2023-04-06T02:14:26.756Z,8.20
2023-04-06T02:16:56.744Z,7.90
2023-04-06T02:19:23.633Z,6.87
2023-04-06T02:21:50.283Z,10.30
2023-04-06T02:24:17.244Z,8.50
2023-04-06T02:26:43.951Z,11.43
2023-04-06T02:29:11.115Z,12.13
2023-04-06T02:31:38.444Z,8.27
2023-04-06T02:34:07.897Z,9.10
2023-04-06T02:36:34.683Z,13.63
2023-04-06T02:39:01.364Z,9.60
2023-04-06T02:41:28.559Z,8.67
2023-04-06T02:43:56.968Z,9.23
2023-04-06T02:46:34.843Z,9.73
2023-04-06T02:49:03.661Z,8.13
2023-04-06T02:51:33.047Z,7.77
2023-04-06T02:54:10.543Z,9.10
2023-04-06T02:56:37.725Z,9.77
2023-04-06T02:59:04.517Z,10.80
2023-04-06T03:01:33.251Z,10.00
2023-04-06T03:04:04.181Z,8.40
2023-04-06T03:06:31.424Z,10.60
2023-04-06T03:09:05.761Z,9.57
2023-04-06T03:11:33.433Z,15.07
2023-04-06T03:14:00.430Z,7.83
2023-04-06T03:16:27.247Z,10.40
2023-04-06T03:18:54.147Z,9.60
2023-04-06T03:21:21.529Z,8.60
2023-04-06T03:23:52.759Z,13.83
2023-04-06T03:26:19.556Z,8.87
2023-04-06T03:28:46.265Z,10.43
2023-04-06T03:31:13.617Z,10.30
2023-04-06T03:33:47.057Z,11.30
2023-04-06T03:36:20.816Z,9.53
2023-04-06T03:38:48.037Z,9.93
2023-04-06T03:41:15.817Z,8.43
2023-04-06T03:43:48.828Z,12.20
2023-04-06T03:46:15.596Z,11.57
2023-04-06T03:48:42.281Z,10.67
2023-04-06T03:51:09.062Z,12.53
2023-04-06T03:53:37.801Z,10.83
2023-04-06T03:56:05.063Z,9.90
2023-04-06T03:58:32.100Z,11.53
2023-04-06T04:00:58.836Z,10.97
2023-04-06T04:03:28.148Z,11.80
2023-04-06T04:05:56.543Z,9.43
2023-04-06T04:08:25.965Z,9.80
2023-04-06T04:10:52.645Z,9.60
2023-04-06T04:13:20.015Z,9.30
2023-04-06T04:15:49.480Z,9.80
2023-04-06T04:18:16.471Z,9.80
2023-04-06T04:20:43.187Z,8.13
2023-04-06T04:23:11.500Z,9.57
2023-04-06T04:25:38.233Z,11.27
2023-04-06T04:28:05.075Z,11.83
2023-04-06T04:30:32.308Z,13.20
2023-04-06T04:32:59.283Z,11.07
2023-04-06T04:35:26.107Z,11.50
2023-04-06T04:37:53.147Z,8.60
2023-04-06T04:40:20.199Z,9.13
2023-04-06T04:42:54.234Z,9.67
2023-04-06T04:45:28.074Z,10.67
2023-04-06T04:47:55.874Z,9.97
2023-04-06T04:50:25.954Z,10.33
2023-04-06T04:52:56.696Z,11.90
2023-04-06T04:55:26.181Z,10.10
2023-04-06T04:57:55.969Z,9.93
2023-04-06T05:00:30.567Z,9.03
2023-04-06T05:02:59.117Z,12.00
2023-04-06T05:05:31.465Z,10.03
2023-04-06T05:07:58.824Z,8.27
2023-04-06T05:10:37.005Z,12.93
2023-04-06T05:13:04.554Z,9.77
2023-04-06T05:15:31.984Z,9.43
2023-04-06T05:18:05.905Z,8.23
2023-04-06T05:20:35.602Z,17.57
2023-04-06T05:23:02.737Z,10.73
2023-04-06T05:25:30.794Z,9.07
2023-04-06T05:28:03.657Z,15.30
2023-04-06T05:30:33.823Z,8.93
2023-04-06T05:33:00.711Z,11.17
2023-04-06T05:35:34.312Z,10.13
2023-04-06T05:38:11.360Z,10.17
2023-04-06T05:40:42.346Z,10.70
2023-04-06T05:43:13.555Z,9.70
2023-04-06T05:45:46.478Z,9.73
2023-04-06T05:48:45.427Z,9.67
2023-04-06T05:51:13.981Z,10.87
2023-04-06T05:53:47.538Z,11.47
2023-04-06T05:56:14.291Z,12.07
2023-04-06T05:58:42.377Z,12.27
2023-04-06T06:01:11.579Z,11.07
2023-04-06T06:03:42.654Z,11.23
2023-04-06T06:06:09.398Z,10.30
2023-04-06T06:08:50.154Z,11.10
2023-04-06T06:11:18.179Z,14.03
2023-04-06T06:13:44.975Z,13.77
2023-04-06T06:16:11.735Z,10.40
2023-04-06T06:18:43.926Z,10.17
2023-04-06T06:21:13.253Z,13.10
2023-04-06T06:23:44.619Z,11.10
2023-04-06T06:26:15.855Z,12.77
2023-04-06T06:28:42.957Z,10.60
2023-04-06T06:31:13.964Z,12.60
2023-04-06T06:33:41.107Z,12.00
2023-04-06T06:36:08.362Z,13.20
2023-04-06T06:38:35.121Z,10.67
2023-04-06T06:41:01.991Z,14.07
2023-04-06T06:43:31.831Z,14.73
2023-04-06T06:46:02.124Z,13.50
2023-04-06T06:48:28.954Z,13.50
2023-04-06T06:50:56.302Z,10.33
2023-04-06T06:53:23.871Z,12.50
2023-04-06T06:55:50.665Z,9.63
2023-04-06T06:58:23.680Z,11.03
2023-04-06T07:00:50.595Z,10.87
2023-04-06T07:03:17.719Z,9.67
2023-04-06T07:05:54.194Z,12.77
2023-04-06T07:08:23.405Z,17.53
2023-04-06T07:10:53.451Z,10.50
2023-04-06T07:13:24.256Z,11.67
2023-04-06T07:15:53.431Z,12.87
2023-04-06T07:18:22.008Z,10.67
2023-04-06T07:20:49.101Z,13.37
2023-04-06T07:23:16.766Z,15.97
2023-04-06T07:25:43.536Z,11.90
2023-04-06T07:28:10.451Z,10.93
2023-04-06T07:30:38.621Z,10.87
2023-04-06T07:33:08.632Z,10.67
2023-04-06T07:35:37.648Z,9.83
2023-04-06T07:38:05.639Z,13.40
2023-04-06T07:40:34.005Z,14.40
2023-04-06T07:43:00.993Z,13.53
2023-04-06T07:45:27.789Z,13.10
2023-04-06T07:47:55.350Z,13.43
2023-04-06T07:50:23.677Z,11.13
2023-04-06T07:52:50.572Z,13.50
2023-04-06T07:55:17.353Z,11.07
2023-04-06T07:57:43.988Z,13.37
2023-04-06T08:00:11.230Z,13.47
2023-04-06T08:02:40.969Z,10.50
2023-04-06T08:05:08.298Z,11.70
2023-04-06T08:07:37.272Z,10.93
2023-04-06T08:10:04.451Z,12.73
2023-04-06T08:12:31.310Z,10.93
2023-04-06T08:14:58.024Z,12.80
2023-04-06T08:17:24.828Z,12.10
2023-04-06T08:19:51.650Z,10.20
2023-04-06T08:22:18.321Z,11.60
2023-04-06T08:24:45.014Z,13.70
2023-04-06T08:27:12.055Z,16.67
2023-04-06T08:29:38.822Z,13.13
2023-04-06T08:32:06.354Z,15.53
2023-04-06T08:34:36.450Z,19.90
2023-04-06T08:37:03.265Z,13.37
2023-04-06T08:39:31.703Z,13.90
2023-04-06T08:42:00.784Z,14.87
2023-04-06T08:44:28.176Z,10.40
2023-04-06T08:46:55.547Z,10.70
2023-04-06T08:49:22.909Z,13.13
2023-04-06T08:51:50.697Z,14.27
2023-04-06T08:54:21.259Z,14.60
2023-04-06T08:56:48.640Z,13.50
2023-04-06T08:59:16.109Z,13.20
2023-04-06T09:01:43.771Z,12.70
2023-04-06T09:04:12.711Z,11.67
2023-04-06T09:06:41.598Z,12.10
2023-04-06T09:09:08.590Z,13.53
2023-04-06T09:11:51.690Z,11.73
2023-04-06T09:14:33.675Z,14.97
2023-04-06T09:17:00.542Z,13.57
2023-04-06T09:19:27.274Z,12.70
2023-04-06T09:22:08.445Z,10.90
2023-04-06T09:24:42.828Z,14.00
2023-04-06T09:27:09.790Z,12.87
2023-04-06T09:29:37.764Z,12.90
2023-04-06T09:32:17.794Z,11.00
2023-04-06T09:34:50.658Z,13.23
2023-04-06T09:37:19.594Z,11.20
2023-04-06T09:39:49.556Z,17.50
2023-04-06T09:42:26.686Z,12.27
2023-04-06T09:44:53.710Z,12.00
2023-04-06T09:47:21.012Z,13.13
2023-04-06T09:49:49.112Z,13.67
2023-04-06T09:52:16.631Z,12.53
2023-04-06T09:54:44.046Z,11.10
2023-04-06T09:57:26.569Z,12.60
2023-04-06T10:00:09.715Z,12.00
2023-04-06T10:02:57.056Z,13.37
2023-04-06T10:05:48.366Z,12.97
2023-04-06T10:08:15.869Z,13.70
2023-04-06T10:10:42.801Z,16.77
2023-04-06T10:13:11.665Z,13.70
2023-04-06T10:15:39.960Z,19.83
2023-04-06T10:18:08.604Z,14.60
2023-04-06T10:20:50.782Z,15.43
2023-04-06T10:23:27.095Z,15.47
2023-04-06T10:25:54.747Z,14.77
2023-04-06T10:28:21.763Z,16.10
2023-04-06T10:30:48.658Z,18.40
2023-04-06T10:33:21.483Z,16.40
2023-04-06T10:35:50.861Z,15.40
2023-04-06T10:38:22.000Z,16.67
2023-04-06T10:40:49.103Z,19.43
2023-04-06T10:43:22.624Z,17.30
2023-04-06T10:46:03.572Z,16.17
2023-04-06T10:48:47.280Z,18.00
2023-04-06T10:51:17.722Z,16.07
2023-04-06T10:53:46.700Z,19.03
2023-04-06T10:56:15.416Z,18.60
2023-04-06T10:58:49.346Z,19.33
2023-04-06T11:01:17.905Z,15.03
2023-04-06T11:03:49.450Z,16.60
2023-04-06T11:06:28.463Z,15.53
2023-04-06T11:08:56.282Z,17.73
2023-04-06T11:11:27.435Z,17.83
2023-04-06T11:13:56.101Z,16.57
2023-04-06T11:16:24.163Z,18.17
2023-04-06T11:19:02.981Z,21.33
2023-04-06T11:21:49.927Z,17.00
2023-04-06T11:24:24.605Z,17.67
2023-04-06T11:26:52.745Z,19.27
2023-04-06T11:29:31.574Z,14.17
2023-04-06T11:32:07.301Z,17.43
2023-04-06T11:34:38.247Z,17.87
2023-04-06T11:37:08.698Z,17.10
2023-04-06T11:39:54.021Z,16.10
2023-04-06T11:42:30.439Z,19.80
2023-04-06T11:44:58.341Z,17.70
2023-04-06T11:47:30.255Z,17.23
2023-04-06T11:50:00.397Z,19.90
2023-04-06T11:52:28.528Z,19.37
2023-04-06T11:54:57.993Z,24.60
2023-04-06T11:57:29.070Z,19.60
2023-04-06T11:59:56.256Z,18.77
2023-04-06T12:02:23.232Z,17.30
2023-04-06T12:04:50.202Z,20.57
2023-04-06T12:07:17.093Z,20.03
2023-04-06T12:09:44.204Z,17.07
2023-04-06T12:12:11.077Z,19.00
2023-04-06T12:14:37.836Z,23.00
2023-04-06T12:17:05.906Z,18.87
2023-04-06T12:19:32.879Z,18.00
2023-04-06T12:21:59.699Z,17.97
2023-04-06T12:24:26.514Z,17.47
2023-04-06T12:27:02.664Z,16.60
2023-04-06T12:29:35.781Z,18.73
2023-04-06T12:32:02.803Z,19.20
2023-04-06T12:34:29.832Z,19.97
2023-04-06T12:36:57.240Z,23.20
2023-04-06T12:39:24.868Z,21.70
2023-04-06T12:41:51.652Z,16.07
2023-04-06T12:44:19.750Z,20.30
2023-04-06T12:46:47.806Z,18.20
2023-04-06T12:49:14.594Z,19.20
2023-04-06T12:51:41.360Z,18.10
2023-04-06T12:54:08.129Z,18.93
2023-04-06T12:56:34.918Z,18.30
2023-04-06T12:59:02.209Z,20.10
2023-04-06T13:01:29.674Z,18.47
2023-04-06T13:03:57.914Z,15.87
2023-04-06T13:06:28.486Z,17.87
2023-04-06T13:08:55.930Z,21.47
2023-04-06T13:11:26.261Z,16.00
2023-04-06T13:13:54.905Z,17.60
2023-04-06T13:16:22.010Z,15.63
2023-04-06T13:18:48.863Z,16.37
2023-04-06T13:21:17.269Z,16.23
2023-04-06T13:23:44.802Z,18.83
2023-04-06T13:26:11.623Z,19.03
2023-04-06T13:28:39.926Z,18.20
2023-04-06T13:31:07.538Z,17.10
2023-04-06T13:33:35.149Z,18.27
2023-04-06T13:36:02.012Z,15.87
2023-04-06T13:38:28.927Z,15.10
2023-04-06T13:40:55.803Z,16.13
2023-04-06T13:43:22.750Z,16.73
2023-04-06T13:45:52.666Z,14.73
2023-04-06T13:48:19.616Z,22.83
2023-04-06T13:50:49.135Z,19.67
2023-04-06T13:53:16.060Z,18.50
2023-04-06T13:55:42.820Z,17.80
2023-04-06T13:58:09.654Z,18.93
2023-04-06T14:00:37.038Z,19.77
2023-04-06T14:03:04.145Z,15.43
2023-04-06T14:05:34.249Z,17.50
2023-04-06T14:08:01.097Z,18.00
2023-04-06T14:10:28.952Z,19.80
2023-04-06T14:12:56.624Z,19.60
2023-04-06T14:15:23.772Z,19.40
2023-04-06T14:17:51.533Z,17.77
2023-04-06T14:20:18.312Z,17.93
2023-04-06T14:22:45.243Z,20.43
2023-04-06T14:25:14.736Z,15.60
2023-04-06T14:27:41.471Z,16.50
2023-04-06T14:30:09.216Z,18.50
2023-04-06T14:32:37.499Z,17.57
2023-04-06T14:35:08.102Z,20.07
2023-04-06T14:37:35.354Z,19.37
2023-04-06T14:40:02.904Z,17.13
2023-04-06T14:42:31.174Z,18.87
2023-04-06T14:44:58.147Z,19.50
2023-04-06T14:47:27.355Z,17.67
2023-04-06T14:49:54.478Z,16.53
2023-04-06T14:52:21.374Z,17.10
2023-04-06T14:54:47.980Z,15.33
2023-04-06T14:57:15.061Z,14.70
2023-04-06T14:59:41.825Z,15.10
2023-04-06T15:02:08.579Z,12.33
2023-04-06T15:07:03.226Z,16.60
2023-04-06T15:09:30.276Z,15.83
2023-04-06T15:11:57.503Z,14.50
2023-04-06T15:14:24.133Z,17.50
2023-04-06T15:16:50.769Z,15.07
2023-04-06T15:19:17.513Z,15.50
2023-04-06T15:21:44.117Z,18.70
2023-04-06T15:24:13.032Z,16.87
2023-04-06T15:26:42.659Z,16.80
2023-04-06T15:29:09.342Z,14.63
2023-04-06T15:31:38.506Z,16.27
2023-04-06T15:34:08.661Z,16.97
2023-04-06T15:36:35.501Z,18.80
2023-04-06T15:39:04.080Z,17.10
2023-04-06T15:41:30.781Z,19.30
2023-04-06T15:43:57.617Z,16.47
2023-04-06T15:46:24.361Z,18.53
2023-04-06T15:48:51.017Z,13.67
2023-04-06T15:51:18.008Z,17.73
2023-04-06T15:53:45.422Z,14.87
2023-04-06T15:56:14.361Z,18.20
2023-04-06T15:58:43.536Z,17.67
2023-04-06T16:01:14.686Z,17.60
2023-04-06T16:03:41.552Z,17.23
2023-04-06T16:06:09.296Z,18.20
2023-04-06T16:08:36.732Z,19.00
2023-04-06T16:11:03.628Z,19.90
2023-04-06T16:13:30.473Z,19.83
2023-04-06T16:15:59.165Z,16.60
2023-04-06T16:18:26.142Z,19.60
2023-04-06T16:20:52.859Z,19.60
2023-04-06T16:23:19.537Z,18.97
2023-04-06T16:25:46.410Z,21.67
2023-04-06T16:28:13.332Z,21.60
2023-04-06T16:30:41.453Z,23.90
2023-04-06T16:33:10.544Z,21.80
2023-04-06T16:35:43.916Z,19.63
2023-04-06T16:38:10.683Z,19.80
2023-04-06T16:40:37.344Z,19.80
2023-04-06T16:43:05.060Z,24.23
2023-04-06T16:45:34.444Z,17.73
2023-04-06T16:48:01.183Z,21.03
2023-04-06T16:50:27.812Z,20.43
2023-04-06T16:52:54.517Z,22.50
2023-04-06T16:55:21.153Z,15.10
2023-04-06T16:57:49.345Z,19.70
2023-04-06T17:00:16.789Z,19.80
2023-04-06T17:02:47.466Z,25.70
2023-04-06T17:05:14.512Z,21.43
2023-04-06T17:07:41.294Z,19.53
2023-04-06T17:10:10.621Z,19.67
2023-04-06T17:12:37.292Z,21.00
2023-04-06T17:15:04.063Z,23.20
2023-04-06T17:17:30.767Z,17.10
2023-04-06T17:19:57.526Z,19.80
2023-04-06T17:22:24.173Z,22.47
2023-04-06T17:24:50.845Z,19.00
2023-04-06T17:27:17.488Z,20.90
2023-04-06T17:29:44.111Z,21.27
2023-04-06T17:32:11.841Z,23.30
2023-04-06T17:34:38.542Z,22.30
2023-04-06T17:37:05.902Z,17.50
2023-04-06T17:39:33.106Z,19.40
2023-04-06T17:42:04.517Z,26.30
2023-04-06T17:44:31.830Z,20.37
2023-04-06T17:46:58.459Z,23.00
2023-04-06T17:49:25.709Z,20.00
2023-04-06T17:51:52.406Z,22.57
2023-04-06T17:54:19.079Z,23.60
2023-04-06T17:56:49.056Z,20.33
2023-04-06T17:59:15.687Z,24.17
2023-04-06T18:01:42.432Z,22.63
2023-04-06T18:04:09.159Z,22.20
2023-04-06T18:06:36.948Z,20.80
2023-04-06T18:09:03.723Z,21.10
2023-04-06T18:11:31.729Z,28.63
2023-04-06T18:13:58.371Z,19.43
2023-04-06T18:16:25.236Z,17.30
2023-04-06T18:18:52.079Z,20.47
2023-04-06T18:21:18.737Z,21.20
2023-04-06T18:23:46.006Z,23.03
2023-04-06T18:26:17.948Z,19.87
2023-04-06T18:28:45.142Z,18.93
2023-04-06T18:31:11.806Z,22.13
2023-04-06T18:33:38.468Z,21.43
2023-04-06T18:36:05.469Z,21.57
2023-04-06T18:38:32.213Z,21.17
2023-04-06T18:40:59.467Z,19.60
2023-04-06T18:43:26.222Z,24.67
2023-04-06T18:45:52.876Z,19.23
2023-04-06T18:48:19.850Z,18.43
2023-04-06T18:51:01.459Z,22.93
2023-04-06T18:53:28.360Z,23.07
2023-04-06T18:55:56.842Z,18.27
2023-04-06T18:58:25.014Z,24.27
2023-04-06T19:00:53.042Z,23.47
2023-04-06T19:03:21.334Z,23.47
2023-04-06T19:05:48.728Z,21.80
2023-04-06T19:08:15.396Z,21.83
2023-04-06T19:10:42.102Z,26.60
2023-04-06T19:13:09.563Z,26.43
2023-04-06T19:15:36.292Z,24.40
2023-04-06T19:18:03.398Z,20.17
2023-04-06T19:20:34.004Z,21.90
2023-04-06T19:23:00.994Z,22.10
2023-04-06T19:25:27.636Z,24.40
2023-04-06T19:27:54.539Z,19.87
2023-04-06T19:30:21.316Z,21.33
2023-04-06T19:32:48.232Z,22.03
2023-04-06T19:35:14.966Z,22.27
2023-04-06T19:37:44.186Z,27.40
2023-04-06T19:40:11.195Z,20.90
2023-04-06T19:42:38.892Z,20.00
2023-04-06T19:45:06.377Z,25.10
2023-04-06T19:47:33.142Z,21.90
2023-04-06T19:50:01.890Z,22.03
2023-04-06T19:52:29.504Z,18.27
2023-04-06T19:54:56.806Z,22.43
2023-04-06T19:57:23.457Z,19.53
2023-04-06T19:59:50.127Z,26.23
2023-04-06T20:02:16.969Z,22.47
2023-04-06T20:04:43.676Z,20.90
2023-04-06T20:07:10.375Z,24.00
2023-04-06T20:09:37.017Z,21.97
2023-04-06T20:12:03.924Z,24.87
2023-04-06T20:14:31.125Z,22.63
2023-04-06T20:16:58.168Z,21.50
2023-04-06T20:19:26.218Z,24.63
2023-04-06T20:21:52.845Z,23.30
2023-04-06T20:24:19.691Z,20.70
2023-04-06T20:26:46.696Z,26.30
2023-04-06T20:29:13.404Z,22.60
2023-04-06T20:31:41.573Z,27.73
2023-04-06T20:34:08.231Z,30.13
2023-04-06T20:36:35.706Z,22.33
2023-04-06T20:39:02.434Z,25.97
2023-04-06T20:41:29.336Z,22.53
2023-04-06T20:43:56.008Z,24.23
2023-04-06T20:46:22.746Z,29.67
2023-04-06T20:48:49.437Z,23.10
2023-04-06T20:51:20.664Z,20.90
2023-04-06T20:53:48.688Z,22.37
2023-04-06T20:56:15.724Z,23.97
2023-04-06T20:58:42.677Z,22.43
2023-04-06T21:01:14.062Z,21.50
2023-04-06T21:03:42.210Z,22.70
2023-04-06T21:06:09.313Z,21.93
2023-04-06T21:08:36.398Z,23.67
2023-04-06T21:11:03.835Z,21.37
2023-04-06T21:13:30.726Z,20.80
2023-04-06T21:15:57.610Z,24.00
2023-04-06T21:18:24.910Z,23.80
2023-04-06T21:20:51.658Z,22.00
2023-04-06T21:23:18.388Z,20.57
2023-04-06T21:25:45.365Z,20.80
2023-04-06T21:28:12.047Z,19.83
2023-04-06T21:30:38.767Z,19.63
2023-04-06T21:33:06.341Z,18.73
2023-04-06T21:35:33.786Z,19.50
2023-04-06T21:38:00.512Z,23.13
2023-04-06T21:40:27.318Z,20.33
2023-04-06T21:42:54.006Z,20.13
2023-04-06T21:45:20.884Z,20.30
2023-04-06T21:47:47.596Z,22.20
2023-04-06T21:50:14.374Z,19.43
2023-04-06T21:52:41.002Z,19.93
2023-04-06T21:55:08.051Z,19.07
2023-04-06T21:57:35.910Z,21.20
2023-04-06T22:00:09.715Z,21.87
2023-04-06T22:02:42.296Z,23.00
2023-04-06T22:05:09.772Z,21.27
2023-04-06T22:07:36.502Z,20.93
2023-04-06T22:10:03.493Z,21.60
2023-04-06T22:12:30.163Z,19.33
2023-04-06T22:14:57.644Z,19.20
2023-04-06T22:17:24.462Z,22.20
2023-04-06T22:19:51.341Z,21.30
2023-04-06T22:22:18.056Z,22.13
2023-04-06T22:24:44.780Z,21.17
2023-04-06T22:27:11.516Z,20.50
2023-04-06T22:29:38.783Z,20.23
2023-04-06T22:32:05.913Z,22.40
2023-04-06T22:34:32.678Z,19.53
2023-04-06T22:36:59.442Z,22.47
2023-04-06T22:39:26.190Z,19.10
2023-04-06T22:41:52.838Z,21.07
2023-04-06T22:44:20.114Z,18.40
2023-04-06T22:46:47.046Z,20.77
2023-04-06T22:49:13.734Z,23.50
2023-04-06T22:51:42.135Z,18.10
2023-04-06T22:54:09.653Z,20.87
2023-04-06T22:56:36.369Z,19.43
2023-04-06T22:59:03.596Z,21.83
2023-04-06T23:01:30.444Z,18.57
2023-04-06T23:03:57.353Z,20.97
2023-04-06T23:06:25.926Z,19.90
2023-04-06T23:08:52.675Z,21.50
2023-04-06T23:11:19.312Z,23.10
2023-04-06T23:13:46.252Z,20.20
2023-04-06T23:16:12.994Z,21.90
2023-04-06T23:18:39.643Z,17.60
2023-04-06T23:21:07.884Z,20.50
2023-04-06T23:23:34.625Z,20.27
2023-04-06T23:26:01.418Z,19.20
2023-04-06T23:28:28.129Z,20.13
2023-04-06T23:30:54.834Z,16.63
2023-04-06T23:33:21.777Z,19.97
2023-04-06T23:35:52.082Z,17.07
2023-04-06T23:38:18.804Z,20.50
2023-04-06T23:40:45.543Z,22.27
2023-04-06T23:43:12.223Z,20.50
2023-04-06T23:45:43.001Z,18.83
2023-04-06T23:48:12.960Z,19.60
2023-04-06T23:50:39.710Z,22.13
2023-04-06T23:53:06.432Z,18.17
2023-04-06T23:55:33.084Z,21.90
2023-04-06T23:57:59.839Z,25.63
